createdAt,value
2019-02-12T00:00:45.688Z,3.60
2019-02-12T00:03:15.149Z,3.60
2019-02-12T00:05:44.605Z,3.50
2019-02-12T00:08:14.080Z,3.50
2019-02-12T00:10:43.713Z,3.60
2019-02-12T00:13:13.149Z,3.50
2019-02-12T00:15:42.635Z,3.50
2019-02-12T00:18:12.077Z,3.50
2019-02-12T00:20:41.561Z,3.50
2019-02-12T00:23:11.023Z,3.50
2019-02-12T00:25:40.610Z,3.50
2019-02-12T00:28:10.222Z,3.50
2019-02-12T00:30:39.675Z,3.50
2019-02-12T00:33:09.208Z,3.50
2019-02-12T00:35:38.681Z,3.50
2019-02-12T00:38:08.115Z,3.50
2019-02-12T00:40:37.569Z,3.50
2019-02-12T00:43:07.050Z,3.50
2019-02-12T00:45:36.545Z,3.50
2019-02-12T00:48:06.107Z,3.50
2019-02-12T00:50:35.589Z,3.50
2019-02-12T00:53:05.008Z,3.40
2019-02-12T00:55:34.446Z,3.40
2019-02-12T00:58:03.937Z,3.40
2019-02-12T01:00:33.387Z,3.40
2019-02-12T01:03:02.821Z,3.40
2019-02-12T01:05:32.292Z,3.40
2019-02-12T01:08:01.829Z,3.40
2019-02-12T01:10:31.259Z,3.40
2019-02-12T01:13:00.808Z,3.40
2019-02-12T01:15:30.264Z,3.40
2019-02-12T01:17:59.712Z,3.30
2019-02-12T01:20:29.211Z,3.30
2019-02-12T01:22:58.653Z,3.30
2019-02-12T01:25:28.104Z,3.30
2019-02-12T01:27:57.736Z,3.30
2019-02-12T01:30:27.196Z,3.30
2019-02-12T01:32:56.647Z,3.30
2019-02-12T01:35:26.193Z,3.30
2019-02-12T01:37:55.652Z,3.30
2019-02-12T01:40:25.098Z,3.30
2019-02-12T01:42:54.575Z,3.30
2019-02-12T01:45:24.037Z,3.40
2019-02-12T01:47:53.486Z,3.30
2019-02-12T01:50:23.027Z,3.30
2019-02-12T01:52:52.534Z,3.30
2019-02-12T01:55:22.040Z,3.30
2019-02-12T01:57:51.499Z,3.30
2019-02-12T02:00:21.049Z,3.30
2019-02-12T02:02:50.497Z,3.30
2019-02-12T02:05:19.968Z,3.30
2019-02-12T02:07:49.522Z,3.30
2019-02-12T02:10:19.221Z,3.30
2019-02-12T02:12:48.678Z,3.30
2019-02-12T02:15:18.651Z,3.30
2019-02-12T02:17:48.215Z,3.30
2019-02-12T02:20:17.665Z,3.30
2019-02-12T02:22:47.173Z,3.30
2019-02-12T02:25:16.664Z,3.30
2019-02-12T02:27:46.094Z,3.30
2019-02-12T02:30:16.584Z,3.30
2019-02-12T02:32:46.115Z,3.30
2019-02-12T02:35:15.567Z,3.30
2019-02-12T02:37:45.012Z,3.30
2019-02-12T02:40:14.557Z,3.20
2019-02-12T02:42:44.091Z,3.30
2019-02-12T02:45:14.266Z,3.20
2019-02-12T02:47:43.806Z,3.20
2019-02-12T02:50:13.300Z,3.20
2019-02-12T02:52:42.729Z,3.20
2019-02-12T02:55:12.277Z,3.20
2019-02-12T02:57:41.728Z,3.20
2019-02-12T03:00:12.617Z,3.20
2019-02-12T03:02:42.072Z,3.10
2019-02-12T03:05:12.634Z,3.20
2019-02-12T03:07:42.135Z,3.20
2019-02-12T03:10:12.215Z,3.20
2019-02-12T03:12:41.728Z,3.20
2019-02-12T03:15:12.232Z,3.20
2019-02-12T03:17:41.717Z,3.20
2019-02-12T03:20:12.835Z,3.20
2019-02-12T03:22:42.287Z,3.20
2019-02-12T03:25:11.885Z,3.20
2019-02-12T03:27:41.407Z,3.20
2019-02-12T03:30:13.087Z,3.20
2019-02-12T03:32:42.618Z,3.20
2019-02-12T03:35:12.271Z,3.20
2019-02-12T03:37:41.745Z,3.20
2019-02-12T03:40:12.636Z,3.20
2019-02-12T03:42:42.163Z,3.20
2019-02-12T03:45:14.033Z,3.20
2019-02-12T03:47:43.489Z,3.20
2019-02-12T03:50:13.636Z,3.20
2019-02-12T03:52:43.086Z,3.10
2019-02-12T03:55:13.992Z,3.10
2019-02-12T03:57:43.600Z,3.10
2019-02-12T04:00:16.132Z,3.10
2019-02-12T04:03:06.796Z,3.10
2019-02-12T04:05:38.262Z,3.10
2019-02-12T04:08:08.021Z,3.10
2019-02-12T04:10:37.648Z,3.10
2019-02-12T04:13:07.232Z,3.10
2019-02-12T04:15:36.821Z,3.10
2019-02-12T04:18:06.296Z,3.10
2019-02-12T04:20:35.812Z,3.10
2019-02-12T04:23:05.371Z,3.10
2019-02-12T04:25:34.764Z,3.10
2019-02-12T04:28:04.306Z,3.10
2019-02-12T04:30:33.829Z,3.10
2019-02-12T04:33:03.281Z,3.10
2019-02-12T04:35:32.724Z,3.10
2019-02-12T04:38:02.190Z,3.10
2019-02-12T04:40:31.651Z,3.00
2019-02-12T04:43:01.075Z,3.00
2019-02-12T04:45:30.539Z,3.10
2019-02-12T04:47:59.989Z,3.00
2019-02-12T04:50:29.423Z,3.00
2019-02-12T04:52:58.892Z,3.00
2019-02-12T04:55:28.378Z,3.10
2019-02-12T04:57:57.828Z,3.10
2019-02-12T05:00:27.311Z,3.10
2019-02-12T05:02:56.778Z,3.10
2019-02-12T05:05:26.259Z,3.10
2019-02-12T05:07:55.719Z,3.10
2019-02-12T05:10:38.120Z,3.10
2019-02-12T05:13:07.625Z,3.10
2019-02-12T05:15:37.102Z,3.10
2019-02-12T05:18:06.570Z,3.10
2019-02-12T05:20:36.085Z,3.20
2019-02-12T05:23:05.671Z,3.20
2019-02-12T05:25:35.142Z,3.20
2019-02-12T05:28:04.622Z,3.20
2019-02-12T05:30:34.073Z,3.20
2019-02-12T05:33:03.580Z,3.20
2019-02-12T05:35:33.021Z,3.20
2019-02-12T05:38:02.465Z,3.20
2019-02-12T05:40:31.914Z,3.20
2019-02-12T05:43:01.357Z,3.10
2019-02-12T05:45:30.790Z,3.10
2019-02-12T05:48:00.266Z,3.10
2019-02-12T05:50:29.746Z,3.10
2019-02-12T05:52:59.194Z,3.10
2019-02-12T05:55:28.648Z,3.10
2019-02-12T05:57:58.083Z,3.00
2019-02-12T06:00:29.165Z,3.10
2019-02-12T06:02:58.619Z,3.00
2019-02-12T06:05:30.139Z,3.00
2019-02-12T06:07:59.649Z,3.00
2019-02-12T06:10:29.176Z,3.00
2019-02-12T06:12:58.632Z,3.00
2019-02-12T06:15:28.180Z,3.00
2019-02-12T06:17:57.665Z,3.00
2019-02-12T06:20:27.112Z,3.00
2019-02-12T06:23:03.441Z,3.00
2019-02-12T06:25:27.790Z,3.00
2019-02-12T06:27:57.183Z,3.00
2019-02-12T06:30:26.628Z,3.10
2019-02-12T06:32:56.102Z,3.10
2019-02-12T06:35:25.520Z,3.10
2019-02-12T06:37:54.972Z,3.10
2019-02-12T06:40:24.515Z,3.10
2019-02-12T06:42:53.966Z,3.10
2019-02-12T06:45:23.413Z,3.20
2019-02-12T06:47:52.918Z,3.20
2019-02-12T06:50:22.424Z,3.20
2019-02-12T06:52:51.907Z,3.20
2019-02-12T06:55:21.350Z,3.30
2019-02-12T06:57:50.849Z,3.30
2019-02-12T07:00:20.361Z,3.30
2019-02-12T07:03:10.121Z,3.30
2019-02-12T07:05:52.917Z,3.30
2019-02-12T07:08:35.352Z,3.30
2019-02-12T07:11:23.672Z,3.30
2019-02-12T07:14:09.394Z,3.30
2019-02-12T07:17:05.543Z,3.30
2019-02-12T07:19:57.172Z,3.30
2019-02-12T07:23:21.310Z,3.30
2019-02-12T07:26:06.085Z,3.30
2019-02-12T07:28:46.069Z,3.30
2019-02-12T07:34:59.259Z,3.40
2019-02-12T07:37:56.944Z,3.40
2019-02-12T07:40:33.879Z,3.40
2019-02-12T07:43:31.052Z,3.40
2019-02-12T07:46:10.456Z,3.40
2019-02-12T07:48:50.365Z,3.50
2019-02-12T07:51:41.932Z,3.50
2019-02-12T07:54:46.020Z,3.50
2019-02-12T07:57:57.389Z,3.60
2019-02-12T08:01:05.813Z,3.60
2019-02-12T08:04:26.234Z,3.70
2019-02-12T08:07:16.717Z,3.70
2019-02-12T08:10:19.266Z,3.80
2019-02-12T08:13:10.929Z,3.80
2019-02-12T08:16:08.280Z,3.90
2019-02-12T08:19:01.791Z,4.00
2019-02-12T08:21:38.617Z,4.10
2019-02-12T08:24:30.631Z,4.20
2019-02-12T08:27:13.445Z,4.30
2019-02-12T08:30:02.322Z,4.30
2019-02-12T08:32:57.428Z,4.40
2019-02-12T08:35:37.182Z,4.50
2019-02-12T08:38:30.549Z,4.50
2019-02-12T08:41:19.180Z,4.60
2019-02-12T08:44:14.152Z,4.60
2019-02-12T08:47:22.634Z,4.60
2019-02-12T08:53:32.771Z,4.70
2019-02-12T08:56:37.701Z,4.70
2019-02-12T08:59:17.532Z,4.70
2019-02-12T09:02:03.380Z,4.80
2019-02-12T09:04:59.864Z,4.80
2019-02-12T09:07:42.425Z,4.90
2019-02-12T09:10:40.408Z,5.00
2019-02-12T09:13:28.983Z,5.00
2019-02-12T09:16:32.904Z,5.10
2019-02-12T09:19:06.977Z,5.10
2019-02-12T09:22:12.816Z,5.20
2019-02-12T09:24:49.297Z,5.20
2019-02-12T09:27:50.417Z,5.20
2019-02-12T09:30:40.824Z,5.20
2019-02-12T09:33:29.725Z,5.20
2019-02-12T09:36:25.813Z,5.20
2019-02-12T09:39:45.723Z,5.20
2019-02-12T09:42:57.103Z,5.20
2019-02-12T09:45:57.367Z,5.20
2019-02-12T09:49:07.521Z,5.20
2019-02-12T09:52:13.228Z,5.20
2019-02-12T09:55:28.345Z,5.20
2019-02-12T09:58:16.947Z,5.20
2019-02-12T10:00:59.523Z,5.20
2019-02-12T10:03:51.434Z,5.20
2019-02-12T10:06:44.580Z,5.20
2019-02-12T10:10:03.944Z,5.30
2019-02-12T10:12:55.582Z,5.30
2019-02-12T10:15:57.371Z,5.40
2019-02-12T10:18:58.466Z,5.40
2019-02-12T10:21:32.533Z,5.40
2019-02-12T10:24:24.350Z,5.50
2019-02-12T10:27:18.518Z,5.50
2019-02-12T10:30:42.633Z,5.50
2019-02-12T10:33:12.130Z,5.60
2019-02-12T10:35:42.526Z,5.60
2019-02-12T10:40:41.474Z,5.70
2019-02-12T10:43:10.926Z,5.80
2019-02-12T10:45:40.446Z,5.90
2019-02-12T10:48:09.931Z,5.90
2019-02-12T10:50:39.371Z,6.00
2019-02-12T10:53:09.058Z,6.10
2019-02-12T10:55:38.690Z,6.10
2019-02-12T10:58:08.630Z,6.20
2019-02-12T11:00:38.619Z,6.30
2019-02-12T11:03:08.097Z,6.40
2019-02-12T11:05:37.607Z,6.40
2019-02-12T11:08:07.034Z,6.50
2019-02-12T11:10:36.561Z,6.50
2019-02-12T11:13:06.066Z,6.60
2019-02-12T11:15:35.511Z,6.70
2019-02-12T11:18:05.574Z,6.70
2019-02-12T11:20:35.041Z,6.80
2019-02-12T11:23:04.468Z,6.90
2019-02-12T11:25:33.936Z,6.90
2019-02-12T11:28:03.392Z,7.00
2019-02-12T11:30:32.947Z,7.10
2019-02-12T11:33:02.546Z,7.10
2019-02-12T11:35:32.021Z,7.20
2019-02-12T11:38:01.632Z,7.30
2019-02-12T11:40:31.092Z,7.40
2019-02-12T11:43:00.535Z,7.50
2019-02-12T11:45:30.038Z,7.60
2019-02-12T11:47:59.479Z,7.60
2019-02-12T11:50:28.925Z,7.70
2019-02-12T11:52:58.407Z,7.80
2019-02-12T11:55:27.846Z,7.80
2019-02-12T11:57:57.293Z,7.90
2019-02-12T12:00:28.478Z,7.90
2019-02-12T12:02:57.898Z,8.00
2019-02-12T12:05:27.360Z,8.00
2019-02-12T12:07:56.830Z,8.00
2019-02-12T12:10:26.263Z,8.10
2019-02-12T12:12:55.713Z,8.20
2019-02-12T12:15:25.272Z,8.30
2019-02-12T12:17:54.728Z,8.40
2019-02-12T12:20:24.189Z,8.50
2019-02-12T12:22:53.684Z,8.50
2019-02-12T12:25:23.202Z,8.70
2019-02-12T12:27:52.661Z,8.70
2019-02-12T12:30:22.207Z,8.90
2019-02-12T12:32:51.680Z,9.00
2019-02-12T12:35:21.235Z,9.10
2019-02-12T12:37:50.851Z,9.30
2019-02-12T12:40:20.319Z,9.40
2019-02-12T12:42:49.778Z,9.50
2019-02-12T12:45:19.335Z,9.50
2019-02-12T12:47:48.808Z,9.50
2019-02-12T12:50:18.282Z,9.60
2019-02-12T12:52:47.725Z,9.70
2019-02-12T12:55:17.206Z,9.80
2019-02-12T12:57:46.755Z,9.80
2019-02-12T13:00:17.603Z,9.90
2019-02-12T13:02:47.052Z,9.90
2019-02-12T13:05:16.668Z,10.00
2019-02-12T13:07:46.271Z,10.10
2019-02-12T13:10:19.281Z,10.20
2019-02-12T13:12:48.874Z,10.30
2019-02-12T13:15:18.624Z,10.40
2019-02-12T13:17:48.277Z,10.50
2019-02-12T13:20:21.563Z,10.60
2019-02-12T13:22:51.043Z,10.60
2019-02-12T13:25:20.503Z,10.70
2019-02-12T13:27:49.992Z,10.80
2019-02-12T13:30:20.603Z,10.90
2019-02-12T13:32:50.132Z,10.90
2019-02-12T13:35:19.622Z,11.00
2019-02-12T13:37:49.088Z,10.90
2019-02-12T13:40:18.555Z,11.00
2019-02-12T13:42:48.121Z,11.00
2019-02-12T13:45:23.914Z,11.00
2019-02-12T13:47:49.333Z,11.20
2019-02-12T13:50:18.832Z,11.10
2019-02-12T13:52:48.308Z,11.20
2019-02-12T13:55:17.951Z,11.20
2019-02-12T13:57:47.438Z,11.30
2019-02-12T14:00:18.406Z,11.30
2019-02-12T14:02:47.898Z,11.30
2019-02-12T14:05:23.550Z,11.30
2019-02-12T14:07:53.043Z,11.30
2019-02-12T14:10:22.505Z,11.20
2019-02-12T14:12:51.976Z,11.20
2019-02-12T14:15:21.453Z,11.10
2019-02-12T14:17:50.894Z,11.00
2019-02-12T14:20:20.375Z,11.00
2019-02-12T14:22:49.849Z,10.90
2019-02-12T14:25:25.313Z,10.90
2019-02-12T14:27:50.541Z,10.90
2019-02-12T14:30:22.444Z,10.90
2019-02-12T14:32:52.072Z,10.90
2019-02-12T14:35:21.536Z,10.80
2019-02-12T14:37:50.976Z,10.80
2019-02-12T14:40:20.409Z,10.80
2019-02-12T14:42:49.922Z,10.80
2019-02-12T14:45:20.474Z,10.90
2019-02-12T14:47:50.047Z,11.00
2019-02-12T14:50:23.214Z,11.10
2019-02-12T14:52:52.656Z,11.30
2019-02-12T14:55:22.143Z,11.40
2019-02-12T14:57:51.616Z,11.50
2019-02-12T15:00:21.716Z,11.60
2019-02-12T15:02:51.277Z,11.60
2019-02-12T15:05:20.820Z,11.60
2019-02-12T15:07:50.349Z,11.70
2019-02-12T15:10:19.818Z,11.70
2019-02-12T15:12:49.386Z,11.70
2019-02-12T15:15:18.961Z,11.60
2019-02-12T15:17:48.560Z,11.60
2019-02-12T15:20:18.254Z,11.50
2019-02-12T15:22:47.746Z,11.40
2019-02-12T15:25:17.275Z,11.40
2019-02-12T15:27:46.756Z,11.30
2019-02-12T15:30:20.171Z,11.20
2019-02-12T15:32:49.681Z,11.00
2019-02-12T15:35:19.098Z,10.90
2019-02-12T15:37:48.550Z,10.90
2019-02-12T15:40:20.295Z,10.80
2019-02-12T15:42:49.838Z,10.70
2019-02-12T15:45:22.039Z,10.50
2019-02-12T15:47:51.561Z,10.50
2019-02-12T15:50:21.075Z,10.40
2019-02-12T15:52:50.718Z,10.40
2019-02-12T15:55:20.186Z,10.30
2019-02-12T15:57:49.636Z,10.30
2019-02-12T16:00:20.865Z,10.20
2019-02-12T16:02:50.453Z,10.20
2019-02-12T16:05:19.921Z,10.20
2019-02-12T16:07:49.399Z,10.10
2019-02-12T16:10:20.607Z,10.10
2019-02-12T16:12:51.574Z,10.10
2019-02-12T16:15:24.830Z,10.10
2019-02-12T16:17:54.409Z,10.00
2019-02-12T16:20:23.836Z,10.00
2019-02-12T16:22:53.277Z,10.00
2019-02-12T16:25:22.746Z,10.00
2019-02-12T16:27:52.294Z,10.00
2019-02-12T16:30:23.281Z,10.00
2019-02-12T16:32:52.741Z,9.90
2019-02-12T16:35:22.236Z,9.90
2019-02-12T16:37:51.852Z,9.90
2019-02-12T16:40:21.352Z,9.90
2019-02-12T16:42:50.851Z,9.80
2019-02-12T16:45:44.553Z,9.80
2019-02-12T16:48:14.037Z,9.80
2019-02-12T16:50:43.559Z,9.70
2019-02-12T16:53:13.017Z,9.60
2019-02-12T16:55:42.563Z,9.60
2019-02-12T16:58:12.100Z,9.50
2019-02-12T17:00:41.526Z,9.40
2019-02-12T17:03:10.968Z,9.40
2019-02-12T17:05:40.488Z,9.30
2019-02-12T17:08:10.059Z,9.20
2019-02-12T17:10:39.472Z,9.20
2019-02-12T17:13:09.449Z,9.10
2019-02-12T17:15:38.867Z,9.00
2019-02-12T17:18:08.389Z,8.90
2019-02-12T17:20:37.876Z,8.90
2019-02-12T17:23:07.310Z,8.80
2019-02-12T17:25:36.852Z,8.80
2019-02-12T17:28:06.375Z,8.70
2019-02-12T17:30:36.031Z,8.70
2019-02-12T17:33:05.652Z,8.70
2019-02-12T17:35:35.212Z,8.60
2019-02-12T17:38:04.793Z,8.60
2019-02-12T17:40:34.321Z,8.50
2019-02-12T17:43:03.860Z,8.50
2019-02-12T17:45:33.459Z,8.40
2019-02-12T17:48:03.240Z,8.40
2019-02-12T17:50:34.738Z,8.30
2019-02-12T17:53:06.601Z,8.20
2019-02-12T17:55:36.084Z,8.20
2019-02-12T17:58:05.617Z,8.10
2019-02-12T18:00:39.401Z,8.00
2019-02-12T18:03:08.943Z,8.00
2019-02-12T18:05:38.423Z,7.90
2019-02-12T18:08:07.849Z,7.90
2019-02-12T18:10:37.343Z,7.80
2019-02-12T18:13:06.834Z,7.70
2019-02-12T18:15:36.371Z,7.70
2019-02-12T18:18:05.961Z,7.70
2019-02-12T18:20:35.440Z,7.70
2019-02-12T18:23:04.959Z,7.60
2019-02-12T18:25:34.453Z,7.60
2019-02-12T18:28:03.888Z,7.60
2019-02-12T18:30:33.332Z,7.50
2019-02-12T18:33:02.802Z,7.50
2019-02-12T18:35:32.220Z,7.40
2019-02-12T18:38:01.770Z,7.40
2019-02-12T18:40:31.235Z,7.40
2019-02-12T18:43:00.706Z,7.30
2019-02-12T18:45:30.147Z,7.30
2019-02-12T18:47:59.668Z,7.20
2019-02-12T18:50:29.130Z,7.20
2019-02-12T18:52:58.580Z,7.20
2019-02-12T18:55:28.047Z,7.20
2019-02-12T18:57:57.564Z,7.20
2019-02-12T19:00:27.171Z,7.20
2019-02-12T19:02:56.635Z,7.10
2019-02-12T19:05:26.191Z,7.10
2019-02-12T19:07:55.641Z,7.10
2019-02-12T19:10:25.102Z,7.10
2019-02-12T19:12:54.597Z,7.00
2019-02-12T19:15:24.212Z,7.00
2019-02-12T19:18:07.187Z,7.00
2019-02-12T19:20:36.798Z,7.00
2019-02-12T19:23:06.486Z,6.90
2019-02-12T19:25:36.091Z,6.90
2019-02-12T19:28:05.582Z,6.90
2019-02-12T19:30:35.052Z,6.90
2019-02-12T19:33:04.500Z,6.90
2019-02-12T19:35:33.947Z,6.80
2019-02-12T19:38:03.546Z,6.80
2019-02-12T19:40:32.947Z,6.80
2019-02-12T19:43:02.409Z,6.80
2019-02-12T19:45:32.459Z,6.90
2019-02-12T19:48:01.924Z,6.90
2019-02-12T19:50:31.360Z,6.90
2019-02-12T19:53:00.916Z,6.90
2019-02-12T19:55:30.365Z,6.90
2019-02-12T19:57:59.828Z,6.90
2019-02-12T20:00:29.279Z,6.90
2019-02-12T20:02:58.717Z,6.90
2019-02-12T20:05:28.229Z,6.90
2019-02-12T20:07:57.687Z,6.80
2019-02-12T20:10:27.197Z,6.80
2019-02-12T20:12:56.685Z,6.80
2019-02-12T20:15:26.190Z,6.90
2019-02-12T20:17:55.690Z,6.90
2019-02-12T20:20:25.300Z,6.90
2019-02-12T20:22:54.763Z,6.90
2019-02-12T20:25:24.231Z,6.90
2019-02-12T20:27:53.721Z,7.00
2019-02-12T20:30:23.221Z,7.00
2019-02-12T20:32:52.645Z,7.00
2019-02-12T20:35:23.560Z,7.00
2019-02-12T20:37:53.041Z,7.00
2019-02-12T20:40:22.563Z,7.00
2019-02-12T20:42:52.108Z,7.10
2019-02-12T20:45:21.606Z,7.10
2019-02-12T20:47:51.060Z,7.10
2019-02-12T20:50:22.054Z,7.10
2019-02-12T20:52:51.511Z,7.10
2019-02-12T20:55:20.958Z,7.10
2019-02-12T20:57:50.435Z,7.10
2019-02-12T21:00:24.684Z,7.10
2019-02-12T21:02:54.209Z,7.00
2019-02-12T21:05:23.805Z,7.00
2019-02-12T21:07:53.344Z,7.00
2019-02-12T21:10:26.228Z,7.00
2019-02-12T21:12:55.692Z,7.00
2019-02-12T21:15:30.752Z,7.00
2019-02-12T21:18:00.366Z,7.00
2019-02-12T21:20:29.912Z,7.00
2019-02-12T21:23:00.951Z,7.00
2019-02-12T21:25:30.420Z,7.00
2019-02-12T21:27:59.904Z,7.00
2019-02-12T21:30:32.657Z,7.00
2019-02-12T21:33:02.164Z,7.00
2019-02-12T21:35:31.627Z,7.00
2019-02-12T21:38:01.952Z,7.00
2019-02-12T21:40:31.502Z,7.10
2019-02-12T21:43:02.236Z,7.00
2019-02-12T21:45:31.775Z,7.00
2019-02-12T21:48:01.227Z,7.10
2019-02-12T21:50:30.763Z,7.00
2019-02-12T21:53:00.223Z,7.10
2019-02-12T21:55:29.694Z,7.00
2019-02-12T21:57:59.169Z,7.00
2019-02-12T22:00:28.773Z,7.00
2019-02-12T22:02:58.249Z,7.00
2019-02-12T22:05:27.709Z,7.00
2019-02-12T22:07:57.270Z,7.00
2019-02-12T22:10:32.974Z,6.90
2019-02-12T22:13:02.522Z,6.80
2019-02-12T22:15:31.978Z,6.90
2019-02-12T22:18:01.535Z,6.80
2019-02-12T22:20:31.022Z,6.80
2019-02-12T22:23:01.872Z,6.80
2019-02-12T22:25:31.628Z,6.80
2019-02-12T22:28:01.079Z,6.70
2019-02-12T22:30:30.671Z,6.70
2019-02-12T22:33:00.149Z,6.60
2019-02-12T22:35:29.775Z,6.60
2019-02-12T22:37:59.243Z,6.60
2019-02-12T22:40:28.684Z,6.50
2019-02-12T22:42:58.137Z,6.50
2019-02-12T22:45:27.715Z,6.50
2019-02-12T22:47:57.151Z,6.50
2019-02-12T22:50:26.599Z,6.40
2019-02-12T22:52:56.082Z,6.40
2019-02-12T22:55:25.524Z,6.40
2019-02-12T22:57:54.998Z,6.30
2019-02-12T23:00:39.438Z,6.30
2019-02-12T23:03:09.639Z,6.30
2019-02-12T23:05:39.083Z,6.30
2019-02-12T23:08:08.731Z,6.20
2019-02-12T23:10:38.307Z,6.20
2019-02-12T23:13:07.774Z,6.20
2019-02-12T23:15:37.456Z,6.20
2019-02-12T23:18:07.032Z,6.20
2019-02-12T23:20:36.568Z,6.20
2019-02-12T23:23:06.034Z,6.20
2019-02-12T23:25:35.546Z,6.20
2019-02-12T23:28:05.211Z,6.20
2019-02-12T23:30:34.738Z,6.20
2019-02-12T23:33:04.334Z,6.10
2019-02-12T23:35:33.886Z,6.10
2019-02-12T23:38:03.802Z,6.10
2019-02-12T23:40:33.251Z,6.10
2019-02-12T23:43:02.764Z,6.10
2019-02-12T23:45:32.278Z,6.00
2019-02-12T23:48:01.737Z,6.00
2019-02-12T23:50:31.314Z,5.90
2019-02-12T23:53:00.782Z,5.90
2019-02-12T23:55:30.239Z,5.90
2019-02-12T23:58:05.782Z,5.80
